Chie Maru No.10 — JD2376 — position and weather

sailwx.info

Track history (hours):
 
Tides and Currents Weather Stations Pressure Air Temp Water Temp Dewpoint Dewpoint Depression Visibility Wind Speed Wind Dir Waves Ship Positions

Chie Maru No.10

Last reported at 2016-May-08 07:20 UTC. Time now 2016-May-29 02:00 UTC.
Position N 34°57' E 139°26'.
Warning: this ship's position is 20 days out of date.

Length 72 m; draft 3.8 m.

Type: Ship. MMSI: 431000147.

Date/timePositionNaut miles runAvg speedWind from/ knotsBaromVisibWave heightAir tempDewpointWater temp
2016-May-08 07:20N 34°57' E 139°26'2111.6
2016-May-08 05:33N 35°11' E 139°45'1111.0
2016-May-08 04:33N 35°21' E 139°42'3 2.8
2016-May-08 03:33N 35°24' E 139°44'6 5.8
2016-May-08 02:33N 35°29' E 139°40'0 0.0
2016-May-08 01:33N 35°29' E 139°40'0 0.0
2016-May-08 00:33N 35°29' E 139°40'0 0.0
2016-May-07 23:33N 35°29' E 139°40'1 0.9
2016-May-07 22:33N 35°28' E 139°40'5 4.9
2016-May-07 21:28N 35°24' E 139°44'0 0.0
2016-May-07 20:31N 35°24' E 139°44'0 0.1
2016-May-07 19:31N 35°24' E 139°44'0 0.0
2016-May-07 18:31N 35°24' E 139°44'0 0.0
2016-May-07 17:31N 35°24' E 139°44'0 0.0
2016-May-07 16:31N 35°24' E 139°44'0 0.0
2016-May-07 15:33N 35°24' E 139°44'10 9.5
2016-May-07 14:33N 35°15' E 139°47'1111.4
2016-May-07 13:33N 35°03' E 139°44'  
2016-May-05 08:31N 34°37' E 135°02'5 5.6
2016-May-05 07:33N 34°39' E 135°08'0 0.0
2016-May-05 06:33N 34°39' E 135°08'0 0.0
2016-May-05 05:33N 34°39' E 135°08'1 0.9
2016-May-05 04:33N 34°38' E 135°08'0 0.3
2016-May-05 03:21N 34°37' E 135°09'0 0.0
2016-May-05 02:33N 34°37' E 135°09'0 0.0
2016-May-05 01:27N 34°37' E 135°09'0 0.0
2016-May-05 00:27N 34°37' E 135°09'0 0.0
2016-May-04 23:33N 34°37' E 135°09'0 0.0
2016-May-04 22:21N 34°37' E 135°08'0 0.0
2016-May-04 21:27N 34°37' E 135°08'0 0.1
2016-May-04 20:33N 34°37' E 135°09'0 0.0
2016-May-04 19:33N 34°37' E 135°08'0 0.0
2016-May-04 18:33N 34°37' E 135°09'0 0.0
2016-May-04 17:27N 34°37' E 135°09'0 0.0
2016-May-04 16:33N 34°37' E 135°09'0 0.0
2016-May-04 15:33N 34°37' E 135°09'0 0.0
2016-May-04 14:33N 34°37' E 135°09'0 0.0
2016-May-04 13:33N 34°37' E 135°09'0 0.1
2016-May-04 12:33N 34°37' E 135°08'0 0.0
2016-May-04 11:33N 34°37' E 135°08'0 0.0
2016-May-04 10:33N 34°37' E 135°08'0 0.0
2016-May-04 09:33N 34°37' E 135°08'0 0.0
2016-May-04 08:27N 34°37' E 135°08'0 0.0
2016-May-04 07:33N 34°37' E 135°08'0 0.0
2016-May-04 06:33N 34°37' E 135°08'0 0.1
2016-May-04 05:33N 34°37' E 135°09'0 0.0
2016-May-04 04:33N 34°37' E 135°09'0 0.0
2016-May-04 03:33N 34°37' E 135°09'0 0.0
2016-May-04 02:33N 34°37' E 135°09'0 0.0
2016-May-04 01:33N 34°37' E 135°09'0 0.0
2016-May-04 00:33N 34°37' E 135°09'2 2.1
2016-May-03 23:33N 34°36' E 135°11'8 7.9
2016-May-03 22:33N 34°32' E 135°19'0 0.0
2016-May-03 21:16N 34°32' E 135°19'0 0.0
2016-May-03 18:22N 34°32' E 135°19'0 0.0
2016-May-03 16:28N 34°32' E 135°19'0 0.0
2016-May-03 12:28N 34°32' E 135°19'0 0.0
2016-May-03 11:10N 34°32' E 135°19'0 0.0
2016-May-03 10:28N 34°32' E 135°19'0 0.0
2016-May-03 09:28N 34°32' E 135°19'0 0.0
2016-May-03 06:29N 34°32' E 135°19'5 5.0
2016-May-03 05:33N 34°35' E 135°14'6 5.4
2016-May-03 04:31N 34°38' E 135°08'0 0.0
2016-May-03 03:31N 34°38' E 135°08'0 0.1
2016-May-03 02:31N 34°38' E 135°09'0 0.0
2016-May-03 01:31N 34°38' E 135°09'0 0.1
2016-May-03 00:31N 34°38' E 135°08'0 0.1
2016-May-02 23:33N 34°38' E 135°08'0 0.0
2016-May-02 22:21N 34°38' E 135°08'0 0.0
2016-May-02 21:33N 34°38' E 135°08'0 0.0
2016-May-02 20:15N 34°38' E 135°08'0 0.0
2016-May-02 19:33N 34°38' E 135°08'0 0.0
2016-May-02 18:33N 34°38' E 135°08'0 0.0
2016-May-02 17:33N 34°38' E 135°08'0 0.0
2016-May-02 16:33N 34°38' E 135°08'0 0.0
2016-May-02 15:33N 34°38' E 135°08'0 0.0
2016-May-02 14:33N 34°38' E 135°08'0 0.0
2016-May-02 13:27N 34°38' E 135°08'4 4.9
2016-May-02 12:33N 34°35' E 135°04'6 0.2
2016-May-01 04:33N 34°37' E 134°57'9 9.3
2016-May-01 03:33N 34°39' E 135°08'0 0.0
2016-May-01 02:33N 34°39' E 135°08'0 0.0
2016-May-01 01:33N 34°39' E 135°08'0 0.0
2016-May-01 00:33N 34°39' E 135°08'1 1.0
2016-Apr-30 23:33N 34°38' E 135°08'0 0.0
2016-Apr-30 22:33N 34°38' E 135°08'0 0.1
2016-Apr-30 21:33N 34°38' E 135°08'0 0.0
2016-Apr-30 20:33N 34°38' E 135°08'0 0.0
2016-Apr-30 19:33N 34°38' E 135°08'0 0.0
2016-Apr-30 18:33N 34°38' E 135°08'0 0.0
2016-Apr-30 17:33N 34°38' E 135°08'0 0.1
2016-Apr-30 16:33N 34°38' E 135°08'0 0.0
2016-Apr-30 15:33N 34°38' E 135°08'0 0.0
2016-Apr-30 14:27N 34°38' E 135°08'0 0.0
2016-Apr-30 13:15N 34°38' E 135°08'0 0.0
2016-Apr-30 12:21N 34°38' E 135°08'0 0.0
2016-Apr-30 11:27N 34°38' E 135°08'0 0.0
2016-Apr-30 10:33N 34°38' E 135°08'0 0.1
2016-Apr-30 09:28N 34°38' E 135°08'8 8.6
2016-Apr-30 08:32N 34°37' E 134°59'237 7.8
2016-Apr-29 02:10N 33°48' E 130°18'711.5
2016-Apr-29 01:32N 33°41' E 130°16'5 5.4
2016-Apr-29 00:33N 33°37' E 130°21'0 0.0
2016-Apr-28 23:12N 33°37' E 130°21'0 0.0
2016-Apr-28 22:31N 33°37' E 130°21'0 0.0
2016-Apr-28 21:18N 33°37' E 130°21'0 0.1
2016-Apr-28 20:33N 33°37' E 130°21'0 0.0
2016-Apr-28 19:31N 33°37' E 130°21'0 0.0
2016-Apr-28 18:31N 33°37' E 130°21'0 0.0
2016-Apr-28 17:30N 33°37' E 130°21'0 0.0
2016-Apr-28 16:33N 33°37' E 130°21'0 0.0
2016-Apr-28 15:27N 33°37' E 130°21'0 0.1
2016-Apr-28 14:28N 33°37' E 130°21'0 0.0
2016-Apr-28 13:28N 33°37' E 130°21'0 0.0
2016-Apr-28 12:34N 33°37' E 130°21'0 0.0
2016-Apr-28 11:33N 33°37' E 130°21'0 0.0
2016-Apr-28 10:34N 33°37' E 130°21'0 0.0
2016-Apr-28 09:25N 33°37' E 130°21'0 0.0
2016-Apr-28 08:19N 33°37' E 130°21'  
Track history (hours):
 
Tides and Currents Weather Stations Pressure Air Temp Water Temp Dewpoint Dewpoint Depression Visibility Wind Speed Wind Dir Waves Ship Positions

Chie Maru No.10

Last reported at 2016-May-08 07:20 UTC. Time now 2016-May-29 02:00 UTC.
Position N 34°57' E 139°26'.
Warning: this ship's position is 20 days out of date.

Length 72 m; draft 3.8 m.

Type: Ship. MMSI: 431000147.

Date/timePositionNaut miles runAvg speedWind from/ knotsBaromVisibWave heightAir tempDewpointWater temp
2016-May-08 07:20N 34°57' E 139°26'2111.6
2016-May-08 05:33N 35°11' E 139°45'1111.0
2016-May-08 04:33N 35°21' E 139°42'3 2.8
2016-May-08 03:33N 35°24' E 139°44'6 5.8
2016-May-08 02:33N 35°29' E 139°40'0 0.0
2016-May-08 01:33N 35°29' E 139°40'0 0.0
2016-May-08 00:33N 35°29' E 139°40'0 0.0
2016-May-07 23:33N 35°29' E 139°40'1 0.9
2016-May-07 22:33N 35°28' E 139°40'5 4.9
2016-May-07 21:28N 35°24' E 139°44'0 0.0
2016-May-07 20:31N 35°24' E 139°44'0 0.1
2016-May-07 19:31N 35°24' E 139°44'0 0.0
2016-May-07 18:31N 35°24' E 139°44'0 0.0
2016-May-07 17:31N 35°24' E 139°44'0 0.0
2016-May-07 16:31N 35°24' E 139°44'0 0.0
2016-May-07 15:33N 35°24' E 139°44'10 9.5
2016-May-07 14:33N 35°15' E 139°47'1111.4
2016-May-07 13:33N 35°03' E 139°44'  
2016-May-05 08:31N 34°37' E 135°02'5 5.6
2016-May-05 07:33N 34°39' E 135°08'0 0.0
2016-May-05 06:33N 34°39' E 135°08'0 0.0
2016-May-05 05:33N 34°39' E 135°08'1 0.9
2016-May-05 04:33N 34°38' E 135°08'0 0.3
2016-May-05 03:21N 34°37' E 135°09'0 0.0
2016-May-05 02:33N 34°37' E 135°09'0 0.0
2016-May-05 01:27N 34°37' E 135°09'0 0.0
2016-May-05 00:27N 34°37' E 135°09'0 0.0
2016-May-04 23:33N 34°37' E 135°09'0 0.0
2016-May-04 22:21N 34°37' E 135°08'0 0.0
2016-May-04 21:27N 34°37' E 135°08'0 0.1
2016-May-04 20:33N 34°37' E 135°09'0 0.0
2016-May-04 19:33N 34°37' E 135°08'0 0.0
2016-May-04 18:33N 34°37' E 135°09'0 0.0
2016-May-04 17:27N 34°37' E 135°09'0 0.0
2016-May-04 16:33N 34°37' E 135°09'0 0.0
2016-May-04 15:33N 34°37' E 135°09'0 0.0
2016-May-04 14:33N 34°37' E 135°09'0 0.0
2016-May-04 13:33N 34°37' E 135°09'0 0.1
2016-May-04 12:33N 34°37' E 135°08'0 0.0
2016-May-04 11:33N 34°37' E 135°08'0 0.0
2016-May-04 10:33N 34°37' E 135°08'0 0.0
2016-May-04 09:33N 34°37' E 135°08'0 0.0
2016-May-04 08:27N 34°37' E 135°08'0 0.0
2016-May-04 07:33N 34°37' E 135°08'0 0.0
2016-May-04 06:33N 34°37' E 135°08'0 0.1
2016-May-04 05:33N 34°37' E 135°09'0 0.0
2016-May-04 04:33N 34°37' E 135°09'0 0.0
2016-May-04 03:33N 34°37' E 135°09'0 0.0
2016-May-04 02:33N 34°37' E 135°09'0 0.0
2016-May-04 01:33N 34°37' E 135°09'0 0.0
2016-May-04 00:33N 34°37' E 135°09'2 2.1
2016-May-03 23:33N 34°36' E 135°11'8 7.9
2016-May-03 22:33N 34°32' E 135°19'0 0.0
2016-May-03 21:16N 34°32' E 135°19'0 0.0
2016-May-03 18:22N 34°32' E 135°19'0 0.0
2016-May-03 16:28N 34°32' E 135°19'0 0.0
2016-May-03 12:28N 34°32' E 135°19'0 0.0
2016-May-03 11:10N 34°32' E 135°19'0 0.0
2016-May-03 10:28N 34°32' E 135°19'0 0.0
2016-May-03 09:28N 34°32' E 135°19'0 0.0
2016-May-03 06:29N 34°32' E 135°19'5 5.0
2016-May-03 05:33N 34°35' E 135°14'6 5.4
2016-May-03 04:31N 34°38' E 135°08'0 0.0
2016-May-03 03:31N 34°38' E 135°08'0 0.1
2016-May-03 02:31N 34°38' E 135°09'0 0.0
2016-May-03 01:31N 34°38' E 135°09'0 0.1
2016-May-03 00:31N 34°38' E 135°08'0 0.1
2016-May-02 23:33N 34°38' E 135°08'0 0.0
2016-May-02 22:21N 34°38' E 135°08'0 0.0
2016-May-02 21:33N 34°38' E 135°08'0 0.0
2016-May-02 20:15N 34°38' E 135°08'0 0.0
2016-May-02 19:33N 34°38' E 135°08'0 0.0
2016-May-02 18:33N 34°38' E 135°08'0 0.0
2016-May-02 17:33N 34°38' E 135°08'0 0.0
2016-May-02 16:33N 34°38' E 135°08'0 0.0
2016-May-02 15:33N 34°38' E 135°08'0 0.0
2016-May-02 14:33N 34°38' E 135°08'0 0.0
2016-May-02 13:27N 34°38' E 135°08'4 4.9
2016-May-02 12:33N 34°35' E 135°04'6 0.2
2016-May-01 04:33N 34°37' E 134°57'9 9.3
2016-May-01 03:33N 34°39' E 135°08'0 0.0
2016-May-01 02:33N 34°39' E 135°08'0 0.0
2016-May-01 01:33N 34°39' E 135°08'0 0.0
2016-May-01 00:33N 34°39' E 135°08'1 1.0
2016-Apr-30 23:33N 34°38' E 135°08'0 0.0
2016-Apr-30 22:33N 34°38' E 135°08'0 0.1
2016-Apr-30 21:33N 34°38' E 135°08'0 0.0
2016-Apr-30 20:33N 34°38' E 135°08'0 0.0
2016-Apr-30 19:33N 34°38' E 135°08'0 0.0
2016-Apr-30 18:33N 34°38' E 135°08'0 0.0
2016-Apr-30 17:33N 34°38' E 135°08'0 0.1
2016-Apr-30 16:33N 34°38' E 135°08'0 0.0
2016-Apr-30 15:33N 34°38' E 135°08'0 0.0
2016-Apr-30 14:27N 34°38' E 135°08'0 0.0
2016-Apr-30 13:15N 34°38' E 135°08'0 0.0
2016-Apr-30 12:21N 34°38' E 135°08'0 0.0
2016-Apr-30 11:27N 34°38' E 135°08'0 0.0
2016-Apr-30 10:33N 34°38' E 135°08'0 0.1
2016-Apr-30 09:28N 34°38' E 135°08'8 8.6
2016-Apr-30 08:32N 34°37' E 134°59'237 7.8
2016-Apr-29 02:10N 33°48' E 130°18'711.5
2016-Apr-29 01:32N 33°41' E 130°16'5 5.4
2016-Apr-29 00:33N 33°37' E 130°21'0 0.0
2016-Apr-28 23:12N 33°37' E 130°21'0 0.0
2016-Apr-28 22:31N 33°37' E 130°21'0 0.0
2016-Apr-28 21:18N 33°37' E 130°21'0 0.1
2016-Apr-28 20:33N 33°37' E 130°21'0 0.0
2016-Apr-28 19:31N 33°37' E 130°21'0 0.0
2016-Apr-28 18:31N 33°37' E 130°21'0 0.0
2016-Apr-28 17:30N 33°37' E 130°21'0 0.0
2016-Apr-28 16:33N 33°37' E 130°21'0 0.0
2016-Apr-28 15:27N 33°37' E 130°21'0 0.1
2016-Apr-28 14:28N 33°37' E 130°21'0 0.0
2016-Apr-28 13:28N 33°37' E 130°21'0 0.0
2016-Apr-28 12:34N 33°37' E 130°21'0 0.0
2016-Apr-28 11:33N 33°37' E 130°21'0 0.0
2016-Apr-28 10:34N 33°37' E 130°21'0 0.0
2016-Apr-28 09:25N 33°37' E 130°21'0 0.0
2016-Apr-28 08:19N 33°37' E 130°21'  

Dump ship's entire track history